LOWG/GRZ METAR and TAF weather

Enter ICAO airport designator
Station Type Date Time Source
LOWG METAR 2021/05/15 23:50 UTC NOAA

LOWG 152350Z AUTO 04002KT 9999 NSC 11/10 Q1005


Station Type Date Time Source
LOWG Decoded METAR 2021/05/15 23:50 UTC NOAA

Graz-Thalerhof-Flughafen, Austria (LOWG) 47-00N 015-26E 347M
May 15, 2021 - 07:50 PM EDT / 2021.05.15 2350 UTC
Wind: from the NE (040 degrees) at 2 MPH (2 KT):0
Visibility: greater than 7 mile(s):0
Temperature: 51 F (11 C)
Dew Point: 50 F (10 C)
Relative Humidity: 93%
Pressure (altimeter): 29.68 in. Hg (1005 hPa)
ob: LOWG 152350Z AUTO 04002KT 9999 NSC 11/10 Q1005
cycle: 0

Station Type Date Time Source
LOWG TAF 2021/05/15 18:18 UTC NOAA

TAF TAF LOWG 151715Z 1518/1618 VRB04KT 9999 FEW040 SCT070 TX16/1612Z TN10/1602Z
TEMPO 1601/1605 2500 -RA
TEMPO 1611/1616 SHRA FEW040CB BKN060 PROB30
TEMPO 1611/1615 VRB10KT 4500 TSRA SCT040CB BKN060
TEMPO 1616/1618 -SHRA

Example: see airport list